Time;durP1;ratioP1;P1;durP2;ratioP2;P2;SDS_P1;SDS_P2;PMS_P1;PMS_P2;Temp;Humidity;BMP_temperature;BMP_pressure;BME280_temperature;BME280_humidity;BME280_pressure;Samples;Min_cycle;Max_cycle;Signal;HPM_P1;HPM_P2
2022/09/08 00:01:36;;;;;;;10.55;7.47;;;;;;;;;;4419390;32;20217;-86
2022/09/08 00:04:03;;;;;;;15.30;6.57;;;;;;;;;;4419551;32;20310;-86
2022/09/08 00:06:32;;;;;;;11.82;7.20;;;;;;;;;;4419475;32;20265;-87
2022/09/08 00:09:00;;;;;;;17.45;7.20;;;;;;;;;;4418954;32;20550;-86
2022/09/08 00:11:32;;;;;;;17.55;7.15;;;;;;;;;;4419342;32;20243;-86
2022/09/08 00:14:00;;;;;;;14.00;6.82;;;;;;;;;;4418844;32;20243;-86
2022/09/08 00:16:27;;;;;;;9.65;6.68;;;;;;;;;;4419711;32;20293;-86
2022/09/08 00:18:54;;;;;;;12.35;7.95;;;;;;;;;;4418892;32;20572;-86
2022/09/08 00:21:22;;;;;;;10.88;7.43;;;;;;;;;;4420198;32;20214;-86
2022/09/08 00:23:50;;;;;;;8.57;7.43;;;;;;;;;;4421808;32;20229;-86
2022/09/08 00:26:19;;;;;;;10.88;8.00;;;;;;;;;;4421997;32;20550;-87
2022/09/08 00:28:46;;;;;;;13.38;7.82;;;;;;;;;;4421406;32;20241;-86
2022/09/08 00:31:13;;;;;;;8.70;6.87;;;;;;;;;;4422088;32;20205;-86
2022/09/08 00:33:40;;;;;;;6.82;6.15;;;;;;;;;;4421470;32;20225;-85
2022/09/08 00:36:10;;;;;;;13.00;7.57;;;;;;;;;;4408435;32;20294;-86
2022/09/08 00:38:37;;;;;;;10.80;6.70;;;;;;;;;;4421780;32;20255;-86
2022/09/08 00:41:09;;;;;;;12.80;6.35;;;;;;;;;;4421899;32;20610;-86
2022/09/08 00:43:39;;;;;;;13.73;6.78;;;;;;;;;;4421303;32;20289;-87
2022/09/08 00:46:19;;;;;;;7.00;6.30;;;;;;;;;;4422006;32;20225;-86
2022/09/08 00:48:49;;;;;;;10.50;7.55;;;;;;;;;;4421576;32;20225;-86
2022/09/08 00:51:17;;;;;;;9.85;7.18;;;;;;;;;;4421974;32;20217;-85
2022/09/08 00:53:46;;;;;;;12.65;7.50;;;;;;;;;;4421632;32;20229;-85
2022/09/08 00:56:13;;;;;;;11.38;6.78;;;;;;;;;;4421657;32;20227;-87
2022/09/08 00:58:42;;;;;;;10.40;7.30;;;;;;;;;;4421267;32;20225;-85
2022/09/08 01:01:10;;;;;;;8.65;7.07;;;;;;;;;;4421190;32;20262;-86
2022/09/08 01:03:39;;;;;;;13.13;7.28;;;;;;;;;;4421453;32;20355;-86
2022/09/08 01:06:18;;;;;;;7.32;6.60;;;;;;;;;;4421057;32;20637;-85
2022/09/08 01:14:47;;;;;;;13.88;6.80;;;;;;;;;;4421022;32;20268;-86
2022/09/08 01:17:16;;;;;;;16.27;7.62;;;;;;;;;;4421054;32;20249;-86
2022/09/08 01:19:45;;;;;;;11.93;6.93;;;;;;;;;;4421294;32;20208;-86
2022/09/08 01:22:26;;;;;;;8.65;7.78;;;;;;;;;;4421173;32;20229;-86
2022/09/08 01:24:59;;;;;;;8.98;8.02;;;;;;;;;;4421176;32;20210;-85
2022/09/08 01:27:33;;;;;;;9.65;6.50;;;;;;;;;;4420991;32;20270;-86
2022/09/08 01:30:03;;;;;;;8.02;6.35;;;;;;;;;;4421064;32;20220;-86
2022/09/08 01:32:32;;;;;;;9.70;6.70;;;;;;;;;;4420621;32;20308;-86
2022/09/08 01:34:59;;;;;;;12.13;7.07;;;;;;;;;;4421010;32;20313;-87
2022/09/08 01:37:26;;;;;;;9.40;6.60;;;;;;;;;;4420879;32;20294;-85
2022/09/08 01:39:53;;;;;;;7.55;6.68;;;;;;;;;;4420860;32;20361;-86
2022/09/08 01:42:19;;;;;;;9.02;6.47;;;;;;;;;;4420617;32;20324;-85
2022/09/08 01:44:48;;;;;;;7.68;6.90;;;;;;;;;;4420805;32;20658;-86
2022/09/08 01:47:14;;;;;;;8.00;7.20;;;;;;;;;;4420989;32;20562;-85
2022/09/08 01:49:41;;;;;;;15.18;6.87;;;;;;;;;;4420800;32;20483;-86
2022/09/08 01:52:09;;;;;;;8.68;6.93;;;;;;;;;;4420673;32;20411;-86
2022/09/08 01:54:36;;;;;;;10.88;6.90;;;;;;;;;;4420653;32;20213;-86
2022/09/08 01:57:02;;;;;;;8.63;6.50;;;;;;;;;;4420530;32;20262;-86
2022/09/08 01:59:29;;;;;;;11.02;7.18;;;;;;;;;;4420613;32;20261;-86
2022/09/08 02:02:01;;;;;;;11.48;6.53;;;;;;;;;;4420615;32;20243;-85
2022/09/08 02:04:28;;;;;;;8.88;7.00;;;;;;;;;;4420688;32;20297;-85
2022/09/08 02:06:54;;;;;;;12.07;7.07;;;;;;;;;;4420458;32;20226;-85
2022/09/08 02:09:21;;;;;;;12.02;7.30;;;;;;;;;;4420556;32;20217;-86
2022/09/08 02:11:49;;;;;;;14.13;7.40;;;;;;;;;;4420770;32;20415;-86
2022/09/08 02:14:16;;;;;;;11.95;7.55;;;;;;;;;;4420214;32;20213;-86
2022/09/08 02:16:43;;;;;;;14.85;7.72;;;;;;;;;;4420292;32;20213;-85
2022/09/08 02:19:12;;;;;;;11.52;7.70;;;;;;;;;;4406827;32;20224;-86
2022/09/08 02:21:39;;;;;;;21.98;10.10;;;;;;;;;;4420424;32;20286;-86
2022/09/08 02:24:06;;;;;;;10.52;9.00;;;;;;;;;;4420304;32;20213;-86
2022/09/08 02:26:33;;;;;;;7.93;7.12;;;;;;;;;;4420537;32;20217;-85
2022/09/08 02:29:00;;;;;;;10.27;7.70;;;;;;;;;;4419933;32;20228;-86
2022/09/08 02:31:28;;;;;;;14.82;9.23;;;;;;;;;;4420674;32;20229;-86
2022/09/08 02:33:55;;;;;;;8.65;7.68;;;;;;;;;;4420026;32;20228;-86
2022/09/08 02:36:24;;;;;;;26.67;13.60;;;;;;;;;;4420757;32;20217;-86
2022/09/08 02:38:52;;;;;;;18.12;8.68;;;;;;;;;;4419782;32;20293;-85
2022/09/08 02:41:19;;;;;;;10.15;7.47;;;;;;;;;;4420422;32;20632;-85
2022/09/08 02:43:46;;;;;;;8.40;7.07;;;;;;;;;;4419136;32;20229;-85
2022/09/08 02:46:14;;;;;;;8.93;7.90;;;;;;;;;;4420236;32;20550;-86
2022/09/08 02:48:40;;;;;;;12.75;8.82;;;;;;;;;;4420076;32;20232;-86
2022/09/08 02:51:10;;;;;;;34.40;14.65;;;;;;;;;;4420163;32;20366;-86
2022/09/08 02:53:40;;;;;;;19.87;11.43;;;;;;;;;;4420615;32;20229;-86
2022/09/08 02:56:08;;;;;;;9.60;7.75;;;;;;;;;;4420818;32;20216;-84
2022/09/08 02:58:38;;;;;;;26.45;10.20;;;;;;;;;;4419898;32;20224;-85
2022/09/08 03:01:06;;;;;;;18.25;8.70;;;;;;;;;;4420133;32;20210;-85
2022/09/08 03:03:33;;;;;;;9.00;7.55;;;;;;;;;;4419587;32;20233;-85
2022/09/08 03:06:02;;;;;;;12.63;8.48;;;;;;;;;;4419740;32;20345;-85
2022/09/08 03:08:30;;;;;;;9.05;7.75;;;;;;;;;;4419314;32;20247;-85
2022/09/08 03:10:58;;;;;;;8.80;7.20;;;;;;;;;;4419400;32;20205;-86
2022/09/08 03:13:25;;;;;;;8.50;7.62;;;;;;;;;;4420047;32;20369;-85
2022/09/08 03:15:52;;;;;;;7.93;7.12;;;;;;;;;;4419941;32;20602;-85
2022/09/08 03:18:21;;;;;;;7.35;6.65;;;;;;;;;;4419547;32;20296;-85
2022/09/08 03:20:58;;;;;;;7.25;6.53;;;;;;;;;;4419269;32;20236;-85
2022/09/08 03:23:27;;;;;;;17.75;7.37;;;;;;;;;;4419677;32;20228;-85
2022/09/08 03:25:54;;;;;;;11.20;6.85;;;;;;;;;;4419555;32;20276;-85
2022/09/08 03:28:24;;;;;;;10.40;6.50;;;;;;;;;;4419345;32;20331;-84
2022/09/08 03:30:51;;;;;;;11.85;6.93;;;;;;;;;;4420053;32;20251;-86
2022/09/08 03:33:18;;;;;;;10.30;7.30;;;;;;;;;;4419410;32;20224;-86
2022/09/08 03:35:46;;;;;;;8.35;7.55;;;;;;;;;;4419755;32;20205;-86
2022/09/08 03:38:13;;;;;;;11.25;7.85;;;;;;;;;;4419856;32;20269;-86
2022/09/08 03:40:41;;;;;;;11.77;6.78;;;;;;;;;;4419649;32;20559;-86
2022/09/08 03:43:09;;;;;;;9.88;7.15;;;;;;;;;;4419045;32;20629;-85
2022/09/08 03:45:41;;;;;;;12.48;6.97;;;;;;;;;;4419504;32;20221;-86
2022/09/08 03:48:08;;;;;;;9.98;7.07;;;;;;;;;;4419282;32;20240;-86
2022/09/08 03:50:35;;;;;;;10.88;7.55;;;;;;;;;;4419582;32;20206;-86
2022/09/08 03:53:02;;;;;;;8.48;7.25;;;;;;;;;;4418889;32;20734;-86
2022/09/08 03:55:29;;;;;;;10.43;7.45;;;;;;;;;;4420722;32;20260;-86
2022/09/08 03:57:55;;;;;;;8.93;6.87;;;;;;;;;;4422289;32;20248;-85
2022/09/08 04:00:22;;;;;;;15.40;7.32;;;;;;;;;;4422448;32;20209;-86
2022/09/08 04:02:50;;;;;;;12.18;8.38;;;;;;;;;;4421928;32;20646;-86
2022/09/08 04:05:17;;;;;;;17.70;8.48;;;;;;;;;;4422172;32;20273;-85
2022/09/08 04:07:44;;;;;;;13.02;8.07;;;;;;;;;;4422166;32;20225;-85
2022/09/08 04:10:12;;;;;;;8.57;7.68;;;;;;;;;;4422004;32;20284;-85
2022/09/08 04:12:41;;;;;;;13.23;8.05;;;;;;;;;;4438638;27;20703;-85
2022/09/08 04:15:10;;;;;;;10.48;8.38;;;;;;;;;;4424863;32;20496;-86
2022/09/08 04:17:38;;;;;;;21.30;9.95;;;;;;;;;;4430366;32;20209;-87
2022/09/08 04:20:08;;;;;;;13.62;9.90;;;;;;;;;;4423782;32;20296;-83
2022/09/08 04:22:36;;;;;;;11.75;9.30;;;;;;;;;;4422606;32;20538;-85
2022/09/08 04:25:03;;;;;;;13.18;7.75;;;;;;;;;;4422018;32;20721;-85
2022/09/08 04:27:31;;;;;;;9.55;7.90;;;;;;;;;;4422318;32;20599;-85
2022/09/08 04:29:58;;;;;;;19.52;8.57;;;;;;;;;;4422295;32;20680;-85
2022/09/08 04:32:27;;;;;;;17.35;8.27;;;;;;;;;;4421373;32;20507;-85
2022/09/08 04:34:54;;;;;;;16.02;8.10;;;;;;;;;;4421676;32;20625;-83
2022/09/08 04:37:23;;;;;;;12.32;8.48;;;;;;;;;;4421743;32;20553;-84
2022/09/08 04:39:52;;;;;;;13.20;8.30;;;;;;;;;;4421183;32;20627;-84
2022/09/08 04:42:21;;;;;;;15.60;9.27;;;;;;;;;;4421461;32;20527;-85
2022/09/08 04:44:49;;;;;;;13.95;8.48;;;;;;;;;;4421657;32;20662;-85
2022/09/08 04:47:17;;;;;;;20.25;8.95;;;;;;;;;;4420874;32;20542;-85
2022/09/08 04:49:44;;;;;;;22.10;8.90;;;;;;;;;;4421139;32;20593;-84
2022/09/08 04:52:12;;;;;;;13.55;8.20;;;;;;;;;;4421590;32;20640;-85
2022/09/08 04:54:42;;;;;;;22.35;8.90;;;;;;;;;;4420718;32;20562;-85
2022/09/08 04:57:10;;;;;;;17.48;8.57;;;;;;;;;;4421599;32;20585;-85
2022/09/08 04:59:38;;;;;;;13.60;9.82;;;;;;;;;;4420994;32;20545;-85
2022/09/08 05:02:07;;;;;;;16.55;11.18;;;;;;;;;;4421353;32;20261;-85
2022/09/08 05:04:37;;;;;;;16.12;10.75;;;;;;;;;;4423081;32;20290;-84
2022/09/08 05:07:05;;;;;;;13.35;10.80;;;;;;;;;;4422813;32;20269;-84
2022/09/08 05:09:32;;;;;;;18.48;13.23;;;;;;;;;;4423991;32;20570;-86
2022/09/08 05:12:02;;;;;;;17.73;11.25;;;;;;;;;;4424126;32;20542;-87
2022/09/08 05:14:29;;;;;;;19.95;11.65;;;;;;;;;;4423503;32;20582;-83
2022/09/08 05:16:57;;;;;;;19.17;10.82;;;;;;;;;;4423359;32;20610;-81
2022/09/08 05:19:25;;;;;;;16.27;9.95;;;;;;;;;;4423601;32;20698;-88
2022/09/08 05:21:53;;;;;;;23.45;9.88;;;;;;;;;;4422392;32;20293;-85
2022/09/08 05:24:21;;;;;;;19.98;9.68;;;;;;;;;;4421007;32;20284;-87
2022/09/08 05:26:48;;;;;;;17.87;11.40;;;;;;;;;;4421122;32;20607;-88
2022/09/08 05:29:19;;;;;;;17.87;9.30;;;;;;;;;;4421827;32;20296;-86
2022/09/08 05:31:47;;;;;;;19.17;9.63;;;;;;;;;;4422881;32;20580;-90
2022/09/08 05:34:14;;;;;;;17.48;9.98;;;;;;;;;;4421785;32;20632;-87
2022/09/08 05:36:42;;;;;;;11.57;8.70;;;;;;;;;;4421445;32;20546;-87
2022/09/08 05:39:11;;;;;;;14.65;10.10;;;;;;;;;;4422360;32;20550;-88
2022/09/08 05:41:38;;;;;;;15.32;8.43;;;;;;;;;;4423020;32;20247;-86
2022/09/08 05:44:10;;;;;;;12.40;9.02;;;;;;;;;;4423963;32;20488;-88
2022/09/08 05:46:39;;;;;;;16.10;9.60;;;;;;;;;;4423509;32;20523;-86
2022/09/08 05:49:07;;;;;;;26.37;9.93;;;;;;;;;;4422717;32;20227;-88
2022/09/08 05:51:34;;;;;;;15.23;10.27;;;;;;;;;;4421951;32;20670;-88
2022/09/08 05:54:02;;;;;;;14.32;9.05;;;;;;;;;;4422725;32;20250;-87
2022/09/08 05:56:30;;;;;;;19.92;9.30;;;;;;;;;;4421874;32;20679;-88
2022/09/08 05:58:59;;;;;;;21.23;9.02;;;;;;;;;;4421210;32;20611;-87
2022/09/08 06:01:27;;;;;;;14.98;9.43;;;;;;;;;;4421600;32;20600;-86
2022/09/08 06:03:57;;;;;;;21.35;9.82;;;;;;;;;;4421982;32;20627;-86
2022/09/08 06:06:25;;;;;;;10.80;7.97;;;;;;;;;;4422093;32;20682;-85
2022/09/08 06:08:54;;;;;;;15.55;8.60;;;;;;;;;;4421850;32;20240;-85
2022/09/08 06:11:22;;;;;;;15.27;8.85;;;;;;;;;;4421674;32;20648;-85
2022/09/08 06:13:49;;;;;;;12.40;9.35;;;;;;;;;;4421422;32;20692;-86
2022/09/08 06:16:17;;;;;;;13.43;8.15;;;;;;;;;;4421018;32;20445;-87
2022/09/08 06:18:47;;;;;;;17.50;9.82;;;;;;;;;;4421075;32;20500;-86
2022/09/08 06:21:18;;;;;;;14.35;9.00;;;;;;;;;;4420889;32;20471;-87
2022/09/08 06:23:49;;;;;;;17.85;9.00;;;;;;;;;;4421461;32;20504;-86
2022/09/08 06:26:30;;;;;;;12.15;8.82;;;;;;;;;;4422198;32;20662;-87
2022/09/08 06:29:04;;;;;;;11.20;8.77;;;;;;;;;;4421769;32;20508;-87
2022/09/08 06:31:34;;;;;;;24.15;9.35;;;;;;;;;;4421807;32;20640;-85
2022/09/08 06:34:11;;;;;;;14.10;8.73;;;;;;;;;;4421730;32;20606;-86
2022/09/08 06:36:46;;;;;;;17.62;8.73;;;;;;;;;;4422130;32;20550;-87
2022/09/08 06:39:20;;;;;;;17.30;8.80;;;;;;;;;;4420911;32;20586;-85
2022/09/08 06:41:50;;;;;;;10.13;8.23;;;;;;;;;;4421198;32;20555;-88
2022/09/08 06:44:22;;;;;;;20.40;8.48;;;;;;;;;;4421691;32;20302;-87
2022/09/08 06:46:50;;;;;;;10.75;7.55;;;;;;;;;;4421116;32;20592;-87
2022/09/08 06:49:18;;;;;;;12.30;7.10;;;;;;;;;;4421327;32;20538;-88
2022/09/08 06:51:55;;;;;;;8.38;7.00;;;;;;;;;;4421245;32;20255;-87
2022/09/08 06:54:50;;;;;;;23.10;7.78;;;;;;;;;;4421326;32;20526;-88
2022/09/08 06:57:38;;;;;;;12.82;7.53;;;;;;;;;;4418431;32;20687;-88
2022/09/08 07:00:12;;;;;;;16.02;7.57;;;;;;;;;;4421004;32;20527;-88
2022/09/08 07:02:53;;;;;;;10.98;7.95;;;;;;;;;;4421089;32;20279;-87
2022/09/08 07:05:53;;;;;;;11.40;8.23;;;;;;;;;;4420975;32;20220;-87
2022/09/08 07:08:52;;;;;;;13.00;7.82;;;;;;;;;;4420729;32;20577;-87
2022/09/08 07:11:31;;;;;;;9.18;7.55;;;;;;;;;;4419900;32;20657;-88
2022/09/08 07:14:07;;;;;;;15.82;7.37;;;;;;;;;;4420389;32;20584;-88
2022/09/08 07:16:41;;;;;;;23.05;7.82;;;;;;;;;;4419828;32;20351;-88
2022/09/08 07:19:15;;;;;;;17.12;7.75;;;;;;;;;;4420607;32;20519;-88
2022/09/08 07:21:52;;;;;;;12.98;7.70;;;;;;;;;;4420754;32;20252;-88
2022/09/08 07:24:25;;;;;;;19.05;10.10;;;;;;;;;;4420061;32;20546;-87
2022/09/08 07:26:57;;;;;;;12.98;8.10;;;;;;;;;;4420641;32;20580;-87
2022/09/08 07:29:29;;;;;;;13.00;8.90;;;;;;;;;;4420276;32;20287;-88
2022/09/08 07:31:58;;;;;;;18.50;9.48;;;;;;;;;;4422940;32;20562;-88
2022/09/08 07:34:27;;;;;;;21.25;9.38;;;;;;;;;;4423066;32;20558;-88
2022/09/08 07:37:05;;;;;;;15.32;8.35;;;;;;;;;;4422953;32;20763;-88
2022/09/08 07:39:41;;;;;;;16.70;8.27;;;;;;;;;;4423502;32;20541;-88
2022/09/08 07:42:15;;;;;;;15.75;9.40;;;;;;;;;;4422840;32;20680;-88
2022/09/08 07:44:46;;;;;;;11.98;9.15;;;;;;;;;;4423329;32;20592;-88
2022/09/08 07:47:26;;;;;;;15.13;9.23;;;;;;;;;;4428762;32;20628;-88
2022/09/08 07:50:00;;;;;;;9.27;7.72;;;;;;;;;;4427464;32;20331;-88
2022/09/08 07:52:34;;;;;;;14.27;9.45;;;;;;;;;;4434606;32;20300;-88
2022/09/08 07:55:16;;;;;;;16.92;9.68;;;;;;;;;;4438795;32;20209;-87
2022/09/08 07:57:55;;;;;;;12.52;8.68;;;;;;;;;;4429627;32;20550;-88
2022/09/08 08:00:39;;;;;;;9.45;8.40;;;;;;;;;;4427144;32;20204;-88
2022/09/08 08:03:21;;;;;;;9.52;7.57;;;;;;;;;;4424720;32;20626;-88
2022/09/08 08:05:53;;;;;;;12.23;8.85;;;;;;;;;;4423582;32;20528;-87
2022/09/08 08:08:29;;;;;;;9.63;8.45;;;;;;;;;;4422533;32;20626;-88
2022/09/08 08:11:08;;;;;;;10.05;8.20;;;;;;;;;;4422311;32;20492;-88
2022/09/08 08:13:58;;;;;;;13.55;7.65;;;;;;;;;;4422941;32;20664;-87
2022/09/08 08:16:38;;;;;;;13.50;7.97;;;;;;;;;;4425480;32;20650;-93
2022/09/08 08:19:18;;;;;;;13.75;7.62;;;;;;;;;;4425593;32;20558;-92
2022/09/08 08:21:50;;;;;;;9.40;7.62;;;;;;;;;;4422656;32;20585;-94
2022/09/08 08:24:32;;;;;;;11.15;8.63;;;;;;;;;;4421769;32;20554;-91
2022/09/08 08:27:04;;;;;;;12.90;8.57;;;;;;;;;;4421920;32;20601;-91
2022/09/08 08:29:47;;;;;;;13.65;7.80;;;;;;;;;;4421916;32;20638;-92
2022/09/08 08:32:19;;;;;;;12.70;7.18;;;;;;;;;;4421939;32;20731;-93
2022/09/08 08:34:53;;;;;;;11.65;8.15;;;;;;;;;;4422143;32;20206;-90
2022/09/08 08:37:25;;;;;;;8.18;7.28;;;;;;;;;;4421629;32;20225;-90
2022/09/08 08:39:54;;;;;;;11.52;8.25;;;;;;;;;;4421710;32;20583;-91
2022/09/08 08:42:43;;;;;;;12.68;7.62;;;;;;;;;;4420396;32;20358;-91
2022/09/08 08:45:23;;;;;;;8.48;7.35;;;;;;;;;;4421548;32;20538;-94
2022/09/08 08:48:14;;;;;;;8.23;6.95;;;;;;;;;;4421382;32;20615;-93
2022/09/08 08:51:02;;;;;;;11.75;6.97;;;;;;;;;;4422126;32;20261;-92
2022/09/08 08:53:51;;;;;;;11.18;8.68;;;;;;;;;;4422507;32;20542;-93
2022/09/08 08:56:25;;;;;;;13.55;7.70;;;;;;;;;;4421404;32;20237;-89
2022/09/08 08:59:20;;;;;;;9.68;7.72;;;;;;;;;;4421536;32;20223;-92
2022/09/08 09:02:07;;;;;;;10.23;7.62;;;;;;;;;;4421839;32;20614;-90
2022/09/08 09:04:53;;;;;;;15.32;8.15;;;;;;;;;;4421455;32;20555;-89
2022/09/08 09:07:51;;;;;;;10.20;7.25;;;;;;;;;;4420923;32;20753;-92
2022/09/08 09:10:44;;;;;;;10.35;7.82;;;;;;;;;;4420975;32;20573;-89
2022/09/08 09:13:31;;;;;;;12.35;7.55;;;;;;;;;;4421180;32;20269;-88
2022/09/08 09:16:23;;;;;;;8.75;7.37;;;;;;;;;;4421073;32;20554;-90
2022/09/08 09:19:21;;;;;;;8.55;7.07;;;;;;;;;;4421490;32;20558;-91
2022/09/08 09:21:54;;;;;;;12.05;8.25;;;;;;;;;;4421364;32;20236;-90
2022/09/08 09:24:37;;;;;;;12.20;7.02;;;;;;;;;;4420013;32;38763;-90
2022/09/08 09:27:15;;;;;;;8.93;7.12;;;;;;;;;;4420869;32;20658;-92
2022/09/08 09:29:43;;;;;;;12.90;7.75;;;;;;;;;;4421302;32;20526;-91
2022/09/08 09:32:31;;;;;;;12.80;8.15;;;;;;;;;;4421068;32;20664;-91
2022/09/08 09:35:14;;;;;;;10.57;7.60;;;;;;;;;;4421422;32;20310;-93
2022/09/08 09:38:03;;;;;;;12.23;8.88;;;;;;;;;;4421012;32;20556;-93
2022/09/08 09:40:46;;;;;;;11.38;7.75;;;;;;;;;;4419423;32;20676;-94
2022/09/08 09:43:35;;;;;;;10.68;7.65;;;;;;;;;;4421193;32;20532;-93
2022/09/08 09:46:37;;;;;;;9.55;7.30;;;;;;;;;;4422848;32;20559;-90
2022/09/08 09:49:22;;;;;;;10.35;7.53;;;;;;;;;;4435550;32;20243;-84
2022/09/08 09:51:58;;;;;;;6.95;6.25;;;;;;;;;;4435323;32;20201;-86
2022/09/08 09:54:47;;;;;;;7.72;7.00;;;;;;;;;;4435234;32;20264;-87
2022/09/08 09:58:06;;;;;;;6.68;5.97;;;;;;;;;;4434789;32;20654;-86
2022/09/08 10:00:54;;;;;;;7.40;6.68;;;;;;;;;;4434308;32;20209;-93
2022/09/08 10:03:53;;;;;;;10.52;6.85;;;;;;;;;;4433575;32;20255;-85
2022/09/08 10:06:26;;;;;;;14.10;6.35;;;;;;;;;;4407183;32;20582;-86
2022/09/08 10:09:39;;;;;;;8.63;6.87;;;;;;;;;;4431307;32;20610;-85
2022/09/08 10:12:34;;;;;;;7.10;6.37;;;;;;;;;;4432711;32;20304;-87
2022/09/08 10:15:40;;;;;;;10.70;6.30;;;;;;;;;;4430860;32;20545;-91
2022/09/08 10:18:59;;;;;;;7.32;6.62;;;;;;;;;;4421443;32;20334;-91
2022/09/08 10:22:09;;;;;;;11.02;6.87;;;;;;;;;;4421797;32;20622;-89
2022/09/08 10:25:18;;;;;;;11.35;6.32;;;;;;;;;;4421198;32;20665;-91
2022/09/08 10:28:34;;;;;;;7.80;6.47;;;;;;;;;;4420542;32;20627;-94
2022/09/08 10:31:28;;;;;;;12.35;6.60;;;;;;;;;;4411726;32;20582;-94
2022/09/08 10:34:30;;;;;;;7.68;6.87;;;;;;;;;;4420140;32;20641;-92
2022/09/08 10:37:05;;;;;;;14.00;6.45;;;;;;;;;;4364039;32;20265;-93
2022/09/08 10:40:02;;;;;;;6.50;5.90;;;;;;;;;;4420493;32;20609;-95
2022/09/08 10:42:46;;;;;;;8.82;7.07;;;;;;;;;;4420296;32;20549;-92
2022/09/08 10:45:36;;;;;;;8.77;6.43;;;;;;;;;;4420429;32;20515;-89
2022/09/08 10:48:36;;;;;;;7.18;6.25;;;;;;;;;;4408077;32;20635;-93
2022/09/08 10:51:36;;;;;;;13.07;6.62;;;;;;;;;;4386481;32;20665;-96
2022/09/08 10:54:39;;;;;;;10.80;7.12;;;;;;;;;;4421097;32;20607;-96
2022/09/08 10:57:23;;;;;;;10.30;7.00;;;;;;;;;;4397958;32;20224;-90
2022/09/08 11:00:04;;;;;;;7.03;6.30;;;;;;;;;;4420757;32;20633;-94
2022/09/08 11:02:34;;;;;;;12.25;7.78;;;;;;;;;;4421398;32;20284;-95
2022/09/08 11:05:47;;;;;;;8.05;6.40;;;;;;;;;;4420869;32;20527;-95
2022/09/08 11:08:57;;;;;;;9.68;7.37;;;;;;;;;;4384869;32;20597;-94
2022/09/08 11:11:49;;;;;;;9.18;6.37;;;;;;;;;;4420748;32;20519;-93
2022/09/08 11:14:50;;;;;;;8.48;6.37;;;;;;;;;;4421247;32;20740;-96
2022/09/08 11:17:24;;;;;;;8.40;6.45;;;;;;;;;;4421915;32;20278;-92
2022/09/08 11:19:55;;;;;;;13.40;6.68;;;;;;;;;;4424008;32;20557;-95
2022/09/08 11:22:52;;;;;;;9.73;6.72;;;;;;;;;;4422883;32;20201;-96
2022/09/08 11:25:46;;;;;;;10.57;7.20;;;;;;;;;;4423164;32;20246;-96
2022/09/08 11:28:22;;;;;;;7.57;6.15;;;;;;;;;;4422101;32;20535;-96
2022/09/08 11:31:06;;;;;;;9.98;6.03;;;;;;;;;;4421643;32;20558;-96
2022/09/08 11:34:02;;;;;;;8.30;6.60;;;;;;;;;;4421687;32;20654;-96
2022/09/08 11:36:58;;;;;;;7.62;6.32;;;;;;;;;;4422346;32;20201;-96
2022/09/08 11:39:42;;;;;;;6.78;6.18;;;;;;;;;;4422546;32;20666;-94
2022/09/08 11:42:25;;;;;;;8.27;6.45;;;;;;;;;;4420806;32;20201;-96
2022/09/08 11:45:02;;;;;;;8.50;7.00;;;;;;;;;;4420229;32;20826;-96
2022/09/08 11:47:53;;;;;;;6.93;5.72;;;;;;;;;;4420388;32;20561;-93
2022/09/08 11:50:33;;;;;;;12.88;6.95;;;;;;;;;;4420700;32;20559;-95
2022/09/08 11:53:32;;;;;;;12.30;7.12;;;;;;;;;;4420343;32;20538;-96
2022/09/08 11:56:13;;;;;;;8.50;6.12;;;;;;;;;;4414935;32;20692;-93
2022/09/08 11:58:56;;;;;;;9.43;5.65;;;;;;;;;;4421265;32;20660;-96
2022/09/08 12:01:38;;;;;;;8.20;4.80;;;;;;;;;;4422183;32;20563;-94
2022/09/08 12:04:38;;;;;;;8.13;6.05;;;;;;;;;;4429453;32;20214;-88
2022/09/08 12:07:40;;;;;;;10.70;5.85;;;;;;;;;;4410841;32;20264;-85
2022/09/08 12:10:25;;;;;;;9.10;6.60;;;;;;;;;;4493310;27;20286;-96
2022/09/08 12:13:00;;;;;;;11.57;6.32;;;;;;;;;;4422699;32;20205;-96
2022/09/08 12:15:38;;;;;;;8.57;4.90;;;;;;;;;;4422645;32;20236;-96
2022/09/08 12:18:21;;;;;;;8.25;5.72;;;;;;;;;;4425009;32;20487;-96
2022/09/08 12:21:16;;;;;;;11.95;5.72;;;;;;;;;;4424505;32;20297;-96
2022/09/08 12:23:49;;;;;;;11.52;5.65;;;;;;;;;;4423944;32;20611;-96
2022/09/08 12:26:37;;;;;;;8.07;5.78;;;;;;;;;;4423898;32;20332;-96
2022/09/08 12:29:25;;;;;;;13.23;5.82;;;;;;;;;;4423761;32;20280;-96
2022/09/08 12:32:09;;;;;;;5.72;5.15;;;;;;;;;;4424665;32;20257;-96
2022/09/08 12:35:00;;;;;;;8.82;6.03;;;;;;;;;;4423812;32;20312;-96
2022/09/08 12:37:45;;;;;;;10.13;6.05;;;;;;;;;;4423967;32;20316;-96
2022/09/08 12:40:44;;;;;;;8.65;6.18;;;;;;;;;;4424037;32;20245;-96
2022/09/08 12:43:17;;;;;;;10.57;6.43;;;;;;;;;;4414799;32;20359;-96
2022/09/08 12:46:06;;;;;;;6.25;5.18;;;;;;;;;;4412311;32;20702;-96
2022/09/08 12:48:45;;;;;;;8.88;5.65;;;;;;;;;;4423698;32;20271;-96
2022/09/08 12:51:24;;;;;;;8.25;6.00;;;;;;;;;;4423793;32;20320;-96
2022/09/08 12:54:23;;;;;;;7.68;5.45;;;;;;;;;;4424332;32;20212;-96
2022/09/08 12:57:18;;;;;;;7.43;5.00;;;;;;;;;;4425116;32;20230;-96
2022/09/08 12:59:56;;;;;;;6.70;4.82;;;;;;;;;;4424459;32;20607;-96
2022/09/08 13:03:03;;;;;;;11.60;5.32;;;;;;;;;;4423380;32;20261;-96
2022/09/08 13:05:46;;;;;;;9.50;4.57;;;;;;;;;;4423810;32;20667;-96
2022/09/08 13:08:30;;;;;;;5.47;4.75;;;;;;;;;;4423755;32;20232;-96
2022/09/08 13:11:08;;;;;;;5.12;4.62;;;;;;;;;;4422638;32;20314;-96
2022/09/08 13:13:42;;;;;;;10.20;4.32;;;;;;;;;;4425204;32;20251;-96
2022/09/08 13:16:31;;;;;;;11.98;5.57;;;;;;;;;;4423150;32;20235;-96
2022/09/08 13:19:16;;;;;;;10.43;6.07;;;;;;;;;;4407489;32;20626;-96
2022/09/08 13:22:10;;;;;;;6.00;5.40;;;;;;;;;;4412813;32;20330;-96
2022/09/08 13:24:48;;;;;;;6.60;5.87;;;;;;;;;;4423625;32;20324;-96
2022/09/08 13:27:25;;;;;;;9.63;6.18;;;;;;;;;;4429689;32;20204;-96
2022/09/08 13:30:14;;;;;;;7.00;6.07;;;;;;;;;;4423426;32;20327;-96
2022/09/08 13:32:56;;;;;;;6.65;5.30;;;;;;;;;;4420515;32;20356;-96
2022/09/08 13:35:45;;;;;;;6.25;5.25;;;;;;;;;;4412006;32;20291;-96
2022/09/08 13:38:34;;;;;;;6.40;5.10;;;;;;;;;;4413413;32;20228;-96
2022/09/08 13:41:11;;;;;;;9.50;5.20;;;;;;;;;;4409147;32;20209;-96
2022/09/08 13:44:05;;;;;;;10.32;5.07;;;;;;;;;;4408167;32;20575;-96
2022/09/08 13:46:44;;;;;;;6.35;4.70;;;;;;;;;;4408155;32;20716;-96
2022/09/08 13:49:34;;;;;;;7.87;5.05;;;;;;;;;;4407936;32;20689;-96
2022/09/08 13:52:40;;;;;;;6.60;4.03;;;;;;;;;;4419367;32;20315;-96
2022/09/08 13:55:33;;;;;;;19.58;5.12;;;;;;;;;;4421310;32;20294;-96
2022/09/08 13:58:34;;;;;;;12.35;4.78;;;;;;;;;;4422666;32;20241;-96
2022/09/08 14:01:07;;;;;;;6.85;5.00;;;;;;;;;;4418099;32;20240;-96
2022/09/08 14:03:41;;;;;;;6.72;5.00;;;;;;;;;;4423335;32;20243;-96
2022/09/08 14:06:11;;;;;;;8.40;4.68;;;;;;;;;;4409057;32;20313;-96
2022/09/08 14:08:46;;;;;;;9.10;4.82;;;;;;;;;;4422697;32;20249;-96
2022/09/08 14:11:39;;;;;;;4.95;4.43;;;;;;;;;;4423637;32;20228;-96
2022/09/08 14:14:47;;;;;;;11.45;4.70;;;;;;;;;;4421388;32;20255;-96
2022/09/08 14:17:40;;;;;;;5.90;4.45;;;;;;;;;;4423800;32;20221;-96
2022/09/08 14:20:20;;;;;;;8.70;5.53;;;;;;;;;;4422676;32;20209;-96
2022/09/08 14:22:58;;;;;;;8.00;4.70;;;;;;;;;;4422827;32;20544;-96
2022/09/08 14:25:30;;;;;;;8.85;4.32;;;;;;;;;;4422317;32;20276;-96
2022/09/08 14:28:04;;;;;;;7.30;4.30;;;;;;;;;;4423946;32;20234;-96
2022/09/08 14:30:45;;;;;;;7.72;4.87;;;;;;;;;;4425382;32;20264;-96
2022/09/08 14:33:25;;;;;;;7.35;4.60;;;;;;;;;;4424124;32;20401;-96
2022/09/08 14:35:59;;;;;;;4.87;4.45;;;;;;;;;;4424071;32;20392;-96
2022/09/08 14:38:48;;;;;;;10.27;4.72;;;;;;;;;;4425792;32;20551;-96
2022/09/08 14:41:31;;;;;;;5.78;4.45;;;;;;;;;;4423865;32;20335;-96
2022/09/08 14:44:20;;;;;;;7.18;4.53;;;;;;;;;;4415779;32;20304;-96
2022/09/08 14:46:59;;;;;;;8.30;5.20;;;;;;;;;;4379272;32;20272;-96
2022/09/08 14:49:50;;;;;;;6.00;4.55;;;;;;;;;;4426450;32;20244;-96
2022/09/08 14:52:35;;;;;;;7.15;4.97;;;;;;;;;;4428397;32;20217;-96
2022/09/08 14:55:12;;;;;;;8.27;4.28;;;;;;;;;;4428684;32;20240;-96
2022/09/08 14:57:44;;;;;;;7.95;4.43;;;;;;;;;;4425845;32;20316;-96
2022/09/08 15:00:25;;;;;;;9.48;4.70;;;;;;;;;;4422020;32;20232;-96
2022/09/08 15:03:00;;;;;;;11.45;5.00;;;;;;;;;;4424395;32;20324;-96
2022/09/08 15:06:04;;;;;;;7.90;4.30;;;;;;;;;;4425045;32;20236;-96
2022/09/08 15:08:48;;;;;;;5.72;4.85;;;;;;;;;;4433757;32;20197;-96
2022/09/08 15:11:22;;;;;;;10.43;5.22;;;;;;;;;;4431195;32;20833;-96
2022/09/08 15:14:02;;;;;;;9.32;5.55;;;;;;;;;;4424235;32;20313;-96
2022/09/08 15:16:40;;;;;;;7.22;5.20;;;;;;;;;;4421434;32;20278;-96
2022/09/08 15:19:20;;;;;;;7.53;5.15;;;;;;;;;;4422268;32;20305;-96
2022/09/08 15:21:50;;;;;;;6.25;5.07;;;;;;;;;;4418387;32;20234;-96
2022/09/08 15:24:37;;;;;;;7.22;5.12;;;;;;;;;;4414150;32;20673;-97
2022/09/08 15:27:21;;;;;;;6.53;4.78;;;;;;;;;;4424665;32;20268;-96
2022/09/08 15:29:56;;;;;;;9.43;5.37;;;;;;;;;;4427074;32;20245;-96
2022/09/08 15:32:44;;;;;;;6.70;5.47;;;;;;;;;;4422742;32;20286;-96
2022/09/08 15:35:34;;;;;;;8.25;5.57;;;;;;;;;;4424744;32;20261;-96
2022/09/08 15:38:10;;;;;;;8.95;5.15;;;;;;;;;;4422662;32;20256;-96
2022/09/08 15:41:08;;;;;;;5.57;4.93;;;;;;;;;;4424053;32;20280;-96
2022/09/08 15:43:43;;;;;;;8.45;5.65;;;;;;;;;;4430612;32;20194;-96